Time;durP1;ratioP1;P1;durP2;ratioP2;P2;SDS_P1;SDS_P2;PMS_P1;PMS_P2;Temp;Humidity;BMP_temperature;BMP_pressure;BME280_temperature;BME280_humidity;BME280_pressure;Samples;Min_cycle;Max_cycle;Signal;HPM_P1;HPM_P2
2021/03/27 00:01:58;;;;;;;67.53;37.95;;;;;;;3.82;57.66;95506.25;4227142;28;20040;-71
2021/03/27 00:04:20;;;;;;;66.13;36.78;;;;;;;3.82;57.41;95511.44;4225999;28;20069;-73
2021/03/27 00:06:53;;;;;;;70.95;37.33;;;;;;;3.79;57.18;95509.88;4225589;28;20686;-71
2021/03/27 00:08:58;;;;;;;74.00;37.65;;;;;;;3.81;57.91;95512.38;4225712;28;20051;-71
2021/03/27 00:11:09;;;;;;;66.10;38.15;;;;;;;3.84;57.64;95513.00;4208326;28;20565;-69
2021/03/27 00:13:32;;;;;;;62.35;36.50;;;;;;;3.89;56.93;95512.72;4239466;27;20088;-70
2021/03/27 00:15:39;;;;;;;62.85;36.90;;;;;;;3.90;56.84;95504.00;4209922;28;20071;-72
2021/03/27 00:17:46;;;;;;;63.78;37.85;;;;;;;3.90;57.17;95504.84;4192315;28;20056;-71
2021/03/27 00:19:59;;;;;;;64.82;37.05;;;;;;;3.91;57.52;95505.66;4226751;28;20124;-71
2021/03/27 00:22:04;;;;;;;63.35;37.30;;;;;;;3.88;57.74;95503.28;4205169;28;20574;-70
2021/03/27 00:24:14;;;;;;;64.25;37.38;;;;;;;3.86;57.64;95505.97;4215019;28;20054;-70
2021/03/27 00:26:23;;;;;;;62.13;38.08;;;;;;;3.84;57.24;95501.81;4200888;28;20237;-83
2021/03/27 00:28:31;;;;;;;78.57;39.03;;;;;;;3.81;57.92;95496.84;4229387;28;20051;-83
2021/03/27 00:30:48;;;;;;;72.65;38.05;;;;;;;3.81;57.71;95502.03;4212804;28;20048;-84
2021/03/27 00:32:53;;;;;;;69.88;38.60;;;;;;;3.83;57.45;95494.94;4229921;28;20055;-82
2021/03/27 00:34:57;;;;;;;69.38;39.17;;;;;;;3.82;57.78;95496.72;4231446;28;20391;-85
2021/03/27 00:37:01;;;;;;;73.82;40.25;;;;;;;3.82;57.62;95498.50;4217060;28;20549;-82
2021/03/27 00:39:22;;;;;;;71.03;40.53;;;;;;;3.77;57.88;95493.59;4218162;28;20538;-82
2021/03/27 00:41:27;;;;;;;72.50;41.63;;;;;;;3.76;57.92;95496.28;4198269;28;20241;-82
2021/03/27 00:43:35;;;;;;;73.90;36.85;;;;;;;3.71;57.78;95499.19;4212229;28;20066;-84
2021/03/27 00:45:42;;;;;;;64.10;37.03;;;;;;;3.70;57.71;95497.53;4213462;28;20048;-84
2021/03/27 00:47:48;;;;;;;63.35;37.65;;;;;;;3.65;57.60;95490.03;4189268;28;20555;-83
2021/03/27 00:50:17;;;;;;;62.97;34.95;;;;;;;3.57;57.09;95488.84;4216148;28;20111;-83
2021/03/27 00:52:19;;;;;;;59.17;33.60;;;;;;;3.57;57.16;95491.44;4202140;28;20048;-69
2021/03/27 00:54:20;;;;;;;57.90;35.03;;;;;;;3.54;57.41;95494.22;4204962;28;20056;-84
2021/03/27 00:56:29;;;;;;;57.05;34.35;;;;;;;3.54;57.66;95489.06;4232052;28;20055;-82
2021/03/27 00:58:35;;;;;;;58.80;34.03;;;;;;;3.50;57.40;95491.00;4224364;28;20048;-84
2021/03/27 01:00:47;;;;;;;56.70;31.85;;;;;;;3.47;57.38;95481.66;4229604;28;20036;-82
2021/03/27 01:02:52;;;;;;;54.92;32.15;;;;;;;3.47;57.54;95478.25;4222261;28;20048;-83
2021/03/27 01:04:55;;;;;;;51.55;31.27;;;;;;;3.50;57.14;95483.22;4222179;28;20052;-83
2021/03/27 01:07:00;;;;;;;48.25;30.35;;;;;;;3.48;57.19;95474.72;4215725;28;20048;-85
2021/03/27 01:09:26;;;;;;;46.58;27.45;;;;;;;3.45;57.08;95482.69;4220794;28;20114;-82
2021/03/27 01:11:52;;;;;;;49.80;27.90;;;;;;;3.45;57.03;95480.91;4211987;28;20058;-71
2021/03/27 01:13:55;;;;;;;46.78;26.02;;;;;;;3.43;56.74;95485.38;4228797;27;20639;-70
2021/03/27 01:15:59;;;;;;;46.33;27.02;;;;;;;3.44;56.92;95481.00;4231058;28;20056;-70
2021/03/27 01:18:02;;;;;;;;;;;;;;;3.44;56.82;95492.22;4203419;28;20438;-72
2021/03/27 01:20:15;;;;;;;49.08;30.08;;;;;;;3.42;57.37;95491.50;4207746;28;20148;-70
2021/03/27 01:22:17;;;;;;;53.13;30.95;;;;;;;3.30;57.82;95494.84;4210589;28;20078;-70
2021/03/27 01:24:23;;;;;;;59.42;30.58;;;;;;;3.12;57.70;95504.59;4223944;28;20105;-71
2021/03/27 01:26:28;;;;;;;49.70;27.95;;;;;;;2.97;58.34;95500.31;4211252;28;20487;-69
2021/03/27 01:28:34;;;;;;;56.88;30.05;;;;;;;2.85;58.72;95496.72;4231044;28;20055;-70
2021/03/27 01:30:40;;;;;;;59.83;30.65;;;;;;;2.75;59.29;95503.38;4211498;28;20094;-71
2021/03/27 01:32:50;;;;;;;52.17;29.25;;;;;;;2.72;59.39;95496.63;4211136;28;20064;-70
2021/03/27 01:35:11;;;;;;;44.75;23.88;;;;;;;2.64;58.58;95497.06;4197232;28;20499;-70
2021/03/27 01:37:21;;;;;;;42.83;25.10;;;;;;;2.65;59.03;95498.75;4221523;28;20590;-70
2021/03/27 01:39:30;;;;;;;38.40;23.35;;;;;;;2.65;58.34;95497.94;4216473;28;20513;-69
2021/03/27 01:42:08;;;;;;;44.10;26.30;;;;;;;2.28;59.72;95497.50;4204983;28;20060;-69
2021/03/27 01:44:51;;;;;;;41.95;24.35;;;;;;;2.14;60.59;95500.03;4241456;27;20478;-73
2021/03/27 01:47:09;;;;;;;35.17;22.08;;;;;;;1.91;60.04;95489.25;4211323;28;20052;-71
2021/03/27 01:49:33;;;;;;;40.15;21.92;;;;;;;1.95;60.36;95498.50;4208752;28;20067;-70
2021/03/27 01:51:40;;;;;;;40.10;24.05;;;;;;;2.14;60.50;95495.69;4230704;28;20183;-69
2021/03/27 01:53:54;;;;;;;52.35;30.23;;;;;;;1.94;61.49;95494.25;4210445;28;20056;-71
2021/03/27 01:56:14;;;;;;;48.75;28.55;;;;;;;2.10;61.08;95498.56;4228752;28;20056;-70
2021/03/27 01:58:45;;;;;;;58.40;34.35;;;;;;;2.14;61.30;95497.47;4229191;28;20102;-71
2021/03/27 02:00:55;;;;;;;60.88;36.92;;;;;;;2.04;61.87;95491.97;4195427;28;20056;-69
2021/03/27 02:03:14;;;;;;;61.92;36.13;;;;;;;2.15;61.77;95493.94;4209824;28;20131;-70
2021/03/27 02:05:22;;;;;;;59.13;34.05;;;;;;;2.25;61.28;95493.31;4209616;28;20051;-70
2021/03/27 02:07:51;;;;;;;60.95;35.10;;;;;;;2.27;61.32;95495.81;4229110;28;20059;-69
2021/03/27 02:10:01;;;;;;;64.15;38.00;;;;;;;2.18;61.85;95493.78;4228896;28;20556;-70
2021/03/27 02:12:14;;;;;;;63.70;35.95;;;;;;;2.20;61.59;95497.09;4209934;28;20052;-70
2021/03/27 02:14:29;;;;;;;67.23;35.83;;;;;;;2.28;61.21;95497.50;4211141;28;20051;-69
2021/03/27 02:16:41;;;;;;;63.33;37.15;;;;;;;2.35;61.06;95498.81;4212114;28;20309;-70
2021/03/27 02:18:53;;;;;;;65.18;37.35;;;;;;;2.35;61.61;95503.97;4209501;28;20079;-70
2021/03/27 02:21:03;;;;;;;70.38;38.05;;;;;;;2.33;61.91;95499.81;4231442;28;20085;-70
2021/03/27 02:23:26;;;;;;;63.85;36.20;;;;;;;2.34;61.83;95504.06;4221633;28;20051;-71
2021/03/27 02:25:42;;;;;;;60.10;35.80;;;;;;;2.33;61.86;95505.00;4227790;27;20081;-72
2021/03/27 02:28:07;;;;;;;67.63;37.58;;;;;;;2.31;61.81;95512.81;4227456;28;20043;-71
2021/03/27 02:30:15;;;;;;;69.75;37.85;;;;;;;2.34;61.84;95514.41;4227532;28;20453;-70
2021/03/27 02:32:35;;;;;;;67.70;37.90;;;;;;;2.25;61.82;95511.41;4206220;28;20057;-69
2021/03/27 02:35:15;;;;;;;67.18;37.80;;;;;;;2.25;62.37;95508.00;4209258;28;20090;-70
2021/03/27 02:37:26;;;;;;;63.75;36.90;;;;;;;2.23;62.85;95509.84;4187536;28;20395;-71
2021/03/27 02:39:34;;;;;;;70.72;39.22;;;;;;;2.17;62.57;95515.38;4208570;28;20052;-70
2021/03/27 02:41:53;;;;;;;73.80;39.70;;;;;;;2.15;62.73;95517.19;4229563;28;20097;-70
2021/03/27 02:44:02;;;;;;;72.88;39.92;;;;;;;2.05;63.27;95516.91;4229963;28;20391;-70
2021/03/27 02:46:13;;;;;;;63.85;37.45;;;;;;;2.05;63.25;95520.31;4211402;28;20576;-68
2021/03/27 02:49:01;;;;;;;64.18;38.33;;;;;;;2.14;63.20;95520.72;4228268;28;20051;-69
2021/03/27 02:51:24;;;;;;;68.50;37.40;;;;;;;2.17;62.88;95518.81;4166728;28;20406;-70
2021/03/27 02:53:59;;;;;;;66.53;39.60;;;;;;;2.21;62.66;95516.84;4219051;28;20044;-69
2021/03/27 02:56:16;;;;;;;62.05;35.67;;;;;;;2.25;62.77;95521.75;4241025;27;20078;-71
2021/03/27 02:58:29;;;;;;;63.00;36.80;;;;;;;2.33;61.82;95523.09;4228459;28;20498;-71
2021/03/27 03:01:04;;;;;;;74.07;38.92;;;;;;;2.33;62.25;95526.50;4211053;28;20055;-71
2021/03/27 03:03:12;;;;;;;62.58;36.28;;;;;;;2.31;62.17;95524.94;4228570;28;20536;-71
2021/03/27 03:05:22;;;;;;;65.90;39.75;;;;;;;2.30;62.21;95526.66;4210379;28;20146;-70
2021/03/27 03:07:31;;;;;;;68.28;37.50;;;;;;;2.34;62.36;95525.56;4210061;28;20483;-69
2021/03/27 03:09:45;;;;;;;61.33;37.03;;;;;;;2.36;62.06;95528.91;4191308;28;20056;-69
2021/03/27 03:12:03;;;;;;;63.88;37.38;;;;;;;2.37;61.90;95527.16;4197116;28;20055;-70
2021/03/27 03:14:28;;;;;;;57.92;36.60;;;;;;;2.33;62.29;95529.09;4193734;28;20056;-71
2021/03/27 03:16:31;;;;;;;63.00;38.03;;;;;;;2.35;62.09;95529.84;4209361;28;20057;-69
2021/03/27 03:18:56;;;;;;;65.25;37.38;;;;;;;2.35;61.77;95531.59;4210144;28;20082;-71
2021/03/27 03:21:04;;;;;;;63.58;37.40;;;;;;;2.38;62.06;95528.81;4209678;28;20089;-70
2021/03/27 03:23:25;;;;;;;69.93;38.55;;;;;;;2.37;61.92;95534.91;4210961;28;20058;-70
2021/03/27 03:25:30;;;;;;;67.95;37.70;;;;;;;2.32;62.07;95535.16;4197058;28;20040;-70
2021/03/27 03:27:42;;;;;;;62.47;37.90;;;;;;;2.34;61.82;95540.25;4209921;28;20062;-69
2021/03/27 03:30:04;;;;;;;60.97;38.17;;;;;;;2.31;61.94;95536.09;4209840;28;20488;-70
2021/03/27 03:32:29;;;;;;;62.40;35.78;;;;;;;1.83;63.69;95532.78;4214981;28;20146;-69
2021/03/27 03:34:53;;;;;;;60.92;35.40;;;;;;;1.66;63.96;95541.47;4214691;28;20105;-70
2021/03/27 03:37:15;;;;;;;59.97;35.42;;;;;;;1.68;63.90;95536.22;4217434;28;20100;-70
2021/03/27 03:39:31;;;;;;;56.33;34.42;;;;;;;1.61;64.17;95541.72;4210023;28;20177;-70
2021/03/27 03:41:48;;;;;;;61.70;36.85;;;;;;;1.00;66.42;95537.25;4222600;28;20066;-70
2021/03/27 03:44:18;;;;;;;64.50;37.10;;;;;;;1.14;66.18;95545.13;4208903;28;20491;-71
2021/03/27 03:46:28;;;;;;;61.58;38.60;;;;;;;1.38;65.71;95549.91;4219448;28;20051;-72
2021/03/27 03:48:59;;;;;;;64.32;38.35;;;;;;;1.53;65.25;95546.47;4227967;28;20456;-71
2021/03/27 03:51:05;;;;;;;65.43;36.10;;;;;;;1.68;64.29;95547.41;4222408;28;20040;-69
2021/03/27 03:53:36;;;;;;;63.28;39.05;;;;;;;1.78;63.86;95547.69;4218323;28;20058;-70
2021/03/27 03:55:58;;;;;;;66.25;37.88;;;;;;;1.81;63.91;95550.13;4224960;28;20136;-70
2021/03/27 03:58:11;;;;;;;62.63;36.97;;;;;;;1.80;63.90;95548.44;4210849;28;20473;-71
2021/03/27 04:00:32;;;;;;;56.33;36.20;;;;;;;1.82;63.59;95547.44;4203101;28;20055;-71
2021/03/27 04:02:48;;;;;;;65.18;37.95;;;;;;;1.84;63.65;95552.53;4192247;28;20063;-69
2021/03/27 04:05:02;;;;;;;64.32;36.97;;;;;;;1.78;63.87;95545.94;4197213;28;20142;-82
2021/03/27 04:07:05;;;;;;;62.10;38.38;;;;;;;1.76;63.77;95550.34;4214299;28;20052;-85
2021/03/27 04:09:26;;;;;;;63.90;37.20;;;;;;;1.78;64.15;95547.69;4214874;28;20048;-84
2021/03/27 04:11:36;;;;;;;66.68;38.50;;;;;;;1.76;63.95;95554.69;4203280;28;20435;-83
2021/03/27 04:13:41;;;;;;;62.13;37.67;;;;;;;1.68;64.17;95549.97;4232272;28;20104;-84
2021/03/27 04:15:54;;;;;;;71.68;41.20;;;;;;;1.33;65.47;95557.03;4216670;28;20058;-83
2021/03/27 04:18:05;;;;;;;73.15;40.03;;;;;;;1.30;66.14;95552.03;4198682;28;20056;-85
2021/03/27 04:20:14;;;;;;;69.38;38.58;;;;;;;1.31;66.07;95551.97;4222449;28;20058;-83
2021/03/27 04:22:26;;;;;;;65.25;39.75;;;;;;;1.10;66.19;95553.94;4215243;28;20051;-83
2021/03/27 04:24:31;;;;;;;69.82;42.83;;;;;;;0.84;67.60;95557.00;4214071;28;20048;-85
2021/03/27 04:26:41;;;;;;;75.70;41.97;;;;;;;0.91;67.27;95559.22;4218674;28;20048;-83
2021/03/27 04:28:52;;;;;;;73.10;42.92;;;;;;;0.99;67.04;95569.13;4214967;28;20491;-84
2021/03/27 04:31:04;;;;;;;74.78;42.25;;;;;;;0.88;67.50;95564.50;4215932;28;20112;-84
2021/03/27 04:33:09;;;;;;;75.85;40.05;;;;;;;0.81;67.72;95570.91;4215345;28;20059;-84
2021/03/27 04:35:23;;;;;;;69.15;40.30;;;;;;;0.81;67.49;95574.31;4238931;28;20039;-82
2021/03/27 04:37:37;;;;;;;62.15;36.83;;;;;;;0.76;67.11;95576.31;4240971;28;20059;-83
2021/03/27 04:40:04;;;;;;;49.45;30.98;;;;;;;0.86;66.35;95575.84;4198370;28;20057;-84
2021/03/27 04:42:05;;;;;;;54.88;30.67;;;;;;;1.00;66.19;95575.97;4219875;28;20510;-80
2021/03/27 04:44:12;;;;;;;51.28;30.60;;;;;;;1.16;65.81;95587.16;4226380;28;20062;-83
2021/03/27 04:46:20;;;;;;;52.38;31.30;;;;;;;1.34;65.01;95576.78;4238126;28;20043;-85
2021/03/27 04:48:31;;;;;;;53.78;33.22;;;;;;;1.51;64.50;95584.47;4220175;28;20048;-85
2021/03/27 04:50:42;;;;;;;57.05;31.80;;;;;;;1.63;63.87;95577.78;4251946;27;20051;-84
2021/03/27 04:53:10;;;;;;;56.10;32.05;;;;;;;1.68;64.13;95586.13;4223012;28;20057;-84
2021/03/27 04:55:48;;;;;;;60.80;36.90;;;;;;;1.63;63.92;95582.94;4240204;28;20043;-84
2021/03/27 04:58:23;;;;;;;59.20;36.22;;;;;;;1.60;64.38;95583.13;4226338;28;20044;-71
2021/03/27 05:00:24;;;;;;;57.85;32.97;;;;;;;1.61;64.40;95598.56;4202849;28;20098;-71
2021/03/27 05:02:44;;;;;;;62.17;37.65;;;;;;;0.85;66.90;95599.97;4227512;28;20055;-70
2021/03/27 05:05:15;;;;;;;66.85;38.83;;;;;;;0.90;67.54;95603.16;4212081;28;20495;-70
2021/03/27 05:07:23;;;;;;;71.75;40.45;;;;;;;0.99;66.85;95606.09;4243016;27;20046;-69
2021/03/27 05:09:29;;;;;;;66.75;41.90;;;;;;;1.06;66.17;95604.03;4212996;28;20056;-71
2021/03/27 05:11:41;;;;;;;69.50;41.38;;;;;;;1.10;66.51;95597.81;4241927;27;20051;-72
2021/03/27 05:13:57;;;;;;;78.20;43.22;;;;;;;1.25;66.39;95603.06;4211225;28;20048;-71
2021/03/27 05:16:10;;;;;;;67.13;40.22;;;;;;;1.43;65.59;95610.69;4196176;28;20579;-83
2021/03/27 05:18:30;;;;;;;74.85;43.65;;;;;;;1.57;66.11;95612.53;4244695;27;20453;-83
2021/03/27 05:20:54;;;;;;;66.60;40.67;;;;;;;1.77;64.92;95610.63;4217630;27;20094;-83
2021/03/27 05:22:55;;;;;;;65.20;39.05;;;;;;;1.94;63.74;95612.31;4216821;28;20059;-84
2021/03/27 05:25:11;;;;;;;61.22;36.80;;;;;;;2.05;62.85;95604.78;4235168;28;20043;-84
2021/03/27 05:27:29;;;;;;;58.67;37.25;;;;;;;2.23;62.66;95608.09;4219752;28;20054;-82
2021/03/27 05:29:38;;;;;;;60.83;38.50;;;;;;;2.27;62.27;95604.41;4234747;27;20047;-71
2021/03/27 05:31:54;;;;;;;61.67;37.08;;;;;;;2.34;62.50;95605.72;4217016;28;20048;-71
2021/03/27 05:34:10;;;;;;;67.55;38.00;;;;;;;2.33;62.20;95608.41;4203649;28;20090;-70
2021/03/27 05:36:14;;;;;;;60.20;37.65;;;;;;;2.30;62.33;95609.41;4221260;28;20105;-71
2021/03/27 05:38:15;;;;;;;;;;;;;;;2.26;62.25;95607.94;4211646;28;20138;-71
2021/03/27 05:40:25;;;;;;;56.92;34.80;;;;;;;2.39;62.26;95605.50;4228699;28;20006;-70
2021/03/27 05:43:06;;;;;;;54.17;34.85;;;;;;;2.14;62.85;95603.44;4211189;28;20048;-70
2021/03/27 05:45:40;;;;;;;60.55;36.42;;;;;;;2.25;62.35;95607.06;4199705;28;20186;-71
2021/03/27 05:48:19;;;;;;;60.00;37.42;;;;;;;2.31;62.93;95612.84;4200942;28;20082;-72
2021/03/27 05:50:40;;;;;;;59.22;37.17;;;;;;;2.48;62.16;95610.13;4222764;28;20048;-70
2021/03/27 05:52:53;;;;;;;55.42;36.15;;;;;;;2.59;61.64;95610.34;4228449;28;20043;-70
2021/03/27 05:55:28;;;;;;;56.47;36.05;;;;;;;2.75;61.41;95609.44;4219710;28;20052;-70
2021/03/27 05:58:09;;;;;;;54.72;35.17;;;;;;;2.72;61.05;95610.47;4242915;27;20046;-82
2021/03/27 06:00:28;;;;;;;55.90;34.13;;;;;;;2.79;61.02;95611.75;4226393;28;20449;-84
2021/03/27 06:03:07;;;;;;;57.42;34.30;;;;;;;2.95;60.63;95619.50;4215560;28;20056;-84
2021/03/27 06:05:30;;;;;;;55.50;34.65;;;;;;;2.79;60.85;95622.13;4243191;27;20043;-83
2021/03/27 06:08:06;;;;;;;56.65;32.85;;;;;;;2.79;61.24;95618.72;4205097;28;20052;-83
2021/03/27 06:10:07;;;;;;;56.17;34.17;;;;;;;2.93;60.79;95623.09;4216631;28;20048;-82
2021/03/27 06:12:46;;;;;;;58.97;34.22;;;;;;;3.15;60.20;95623.47;4241934;28;20062;-83
2021/03/27 06:14:56;;;;;;;53.78;32.17;;;;;;;3.39;59.42;95617.75;4241905;28;20078;-81
2021/03/27 06:17:18;;;;;;;50.30;29.83;;;;;;;3.46;58.29;95621.63;4232125;28;20438;-85
2021/03/27 06:19:52;;;;;;;45.88;27.08;;;;;;;3.39;57.62;95621.16;4256617;27;20073;-84
2021/03/27 06:22:22;;;;;;;47.05;27.70;;;;;;;3.49;57.83;95626.63;4215260;28;20055;-83
2021/03/27 06:25:01;;;;;;;43.35;26.77;;;;;;;3.74;57.21;95625.13;4224291;28;20101;-83
2021/03/27 06:27:10;;;;;;;44.88;26.38;;;;;;;3.92;56.62;95625.75;4229992;28;20039;-84
2021/03/27 06:29:32;;;;;;;46.67;25.90;;;;;;;3.99;55.79;95622.69;4195405;28;20052;-70
2021/03/27 06:32:04;;;;;;;43.13;25.15;;;;;;;3.93;55.59;95623.06;4217817;28;20449;-70
2021/03/27 06:34:15;;;;;;;40.58;25.83;;;;;;;4.06;55.38;95630.91;4227998;28;20051;-70
2021/03/27 06:36:29;;;;;;;53.47;26.60;;;;;;;4.22;55.54;95629.00;4229152;28;20051;-70
2021/03/27 06:39:03;;;;;;;43.05;26.33;;;;;;;4.24;54.61;95629.75;4217007;27;20052;-71
2021/03/27 06:41:38;;;;;;;40.67;27.35;;;;;;;4.13;55.45;95627.00;4211587;28;20109;-71
2021/03/27 06:44:10;;;;;;;42.53;25.42;;;;;;;3.96;55.71;95635.00;4231387;27;20040;-71
2021/03/27 06:46:44;;;;;;;41.83;26.17;;;;;;;4.18;55.24;95631.91;4237556;27;20052;-72
2021/03/27 06:49:07;;;;;;;41.03;25.35;;;;;;;4.34;54.53;95632.56;4239394;27;20054;-70
2021/03/27 06:51:21;;;;;;;37.90;23.58;;;;;;;4.50;53.92;95627.25;4228130;28;20047;-70
2021/03/27 06:53:47;;;;;;;36.08;24.17;;;;;;;4.62;53.65;95633.38;4222547;28;20040;-71
2021/03/27 06:56:07;;;;;;;40.13;22.73;;;;;;;4.74;53.56;95627.41;4235327;27;20059;-71
2021/03/27 06:58:49;;;;;;;38.47;23.88;;;;;;;4.73;52.86;95625.72;4228398;28;20054;-70
2021/03/27 07:01:13;;;;;;;36.65;23.13;;;;;;;4.93;52.18;95621.84;4236350;27;20327;-70
2021/03/27 07:03:26;;;;;;;42.80;23.65;;;;;;;5.02;52.03;95628.19;4217541;28;20040;-70
2021/03/27 07:05:57;;;;;;;37.22;23.52;;;;;;;5.15;51.95;95631.63;4228969;28;20039;-70
2021/03/27 07:08:12;;;;;;;32.70;22.08;;;;;;;5.02;51.67;95638.56;4228479;28;20434;-71
2021/03/27 07:10:19;;;;;;;38.40;23.33;;;;;;;4.89;52.02;95633.34;4203914;28;20048;-73
2021/03/27 07:12:32;;;;;;;36.80;22.17;;;;;;;4.89;52.28;95635.94;4215092;28;20054;-73
2021/03/27 07:14:34;;;;;;;32.80;22.15;;;;;;;4.72;52.24;95639.66;4222218;28;20438;-71
2021/03/27 07:16:56;;;;;;;37.63;22.35;;;;;;;4.46;52.27;95636.16;4220394;28;20051;-73
2021/03/27 07:19:16;;;;;;;31.67;21.08;;;;;;;4.53;52.38;95636.59;4226149;27;20203;-71
2021/03/27 07:21:29;;;;;;;31.85;21.65;;;;;;;4.76;51.62;95643.72;4235073;27;20105;-71
2021/03/27 07:23:57;;;;;;;44.28;22.55;;;;;;;4.91;51.47;95629.72;4209271;28;20097;-72
2021/03/27 07:26:27;;;;;;;31.45;20.08;;;;;;;5.02;50.85;95634.19;4213865;28;20056;-73
2021/03/27 07:28:40;;;;;;;35.47;21.48;;;;;;;5.22;51.47;95643.25;4228001;28;20547;-71
2021/03/27 07:31:10;;;;;;;30.55;20.90;;;;;;;5.52;50.86;95639.50;4224389;27;20051;-73
2021/03/27 07:33:23;;;;;;;33.95;21.60;;;;;;;5.75;50.39;95640.53;4217374;28;20045;-84
2021/03/27 07:36:03;;;;;;;30.70;20.48;;;;;;;5.97;49.32;95641.66;4235935;28;20040;-84
2021/03/27 07:38:25;;;;;;;35.95;21.27;;;;;;;6.15;49.28;95643.81;4201516;27;20552;-84
2021/03/27 07:40:37;;;;;;;37.97;21.23;;;;;;;6.29;48.64;95639.38;4226026;28;20051;-83
2021/03/27 07:42:57;;;;;;;31.08;21.52;;;;;;;6.38;48.37;95648.31;4222866;28;20043;-70
2021/03/27 07:45:32;;;;;;;32.17;22.13;;;;;;;6.28;48.21;95637.72;4225151;28;20506;-72
2021/03/27 07:47:41;;;;;;;33.70;21.50;;;;;;;6.48;47.68;95637.13;4223247;28;20580;-72
2021/03/27 07:50:20;;;;;;;33.60;22.13;;;;;;;6.61;47.25;95638.84;4224769;27;20123;-72
2021/03/27 07:52:52;;;;;;;34.55;21.35;;;;;;;6.78;47.14;95635.00;4132521;28;20042;-72
2021/03/27 07:55:12;;;;;;;42.33;21.65;;;;;;;6.82;47.45;95641.63;4125155;28;20502;-72
2021/03/27 07:57:51;;;;;;;41.58;20.58;;;;;;;6.86;46.88;95633.50;4167442;28;20712;-72
2021/03/27 07:59:58;;;;;;;34.90;20.30;;;;;;;6.93;46.85;95633.88;4219704;28;20055;-72
2021/03/27 08:02:06;;;;;;;28.30;19.92;;;;;;;6.62;46.62;95636.09;4209233;28;20063;-71
2021/03/27 08:04:38;;;;;;;37.35;20.73;;;;;;;6.74;47.34;95632.63;4211791;28;20487;-71
2021/03/27 08:06:53;;;;;;;32.00;19.42;;;;;;;6.70;46.92;95639.00;4218695;28;20087;-73
2021/03/27 08:09:00;;;;;;;28.60;19.10;;;;;;;6.87;46.73;95635.16;4220941;28;20093;-71
2021/03/27 08:11:37;;;;;;;30.08;21.30;;;;;;;6.94;46.93;95635.53;4242043;27;20051;-72
2021/03/27 08:13:44;;;;;;;30.92;20.38;;;;;;;7.20;46.67;95633.56;4207779;28;20110;-70
2021/03/27 08:16:08;;;;;;;32.05;19.42;;;;;;;7.39;46.25;95631.22;4226389;28;20039;-72
2021/03/27 08:18:31;;;;;;;32.08;19.80;;;;;;;7.57;46.06;95633.38;4228251;28;20073;-71
2021/03/27 08:20:42;;;;;;;32.05;20.23;;;;;;;7.15;45.78;95636.53;4227407;28;20055;-70
2021/03/27 08:23:17;;;;;;;26.63;19.33;;;;;;;7.41;45.59;95627.69;4226874;28;20047;-70
2021/03/27 08:25:41;;;;;;;30.02;19.98;;;;;;;7.38;45.30;95624.38;4207141;28;20529;-72
2021/03/27 08:27:45;;;;;;;29.90;19.23;;;;;;;7.31;44.81;95625.78;4228658;28;20066;-72
2021/03/27 08:30:17;;;;;;;32.65;19.85;;;;;;;7.09;45.58;95628.34;4207388;28;20105;-71
2021/03/27 08:32:42;;;;;;;38.47;20.23;;;;;;;6.83;46.97;95627.69;4227986;28;20055;-72
2021/03/27 08:35:08;;;;;;;32.10;19.77;;;;;;;7.03;45.97;95628.78;4225615;28;20048;-72
2021/03/27 08:37:16;;;;;;;30.73;19.88;;;;;;;6.80;46.86;95633.09;4226949;28;20044;-71
2021/03/27 08:40:08;;;;;;;28.73;18.35;;;;;;;7.05;45.00;95626.91;4236639;28;20451;-73
2021/03/27 08:42:28;;;;;;;27.50;18.25;;;;;;;7.41;45.61;95627.69;4126903;28;20551;-72
2021/03/27 08:45:14;;;;;;;41.83;18.77;;;;;;;7.78;45.39;95625.69;4189152;28;20051;-69
2021/03/27 08:47:40;;;;;;;26.83;17.80;;;;;;;7.97;44.75;95630.31;4173105;28;20044;-72
2021/03/27 08:49:53;;;;;;;35.67;20.02;;;;;;;7.93;44.71;95629.69;4208755;28;20095;-71
2021/03/27 08:52:16;;;;;;;28.55;18.58;;;;;;;7.95;43.72;95626.97;4228436;28;20051;-72
2021/03/27 08:54:56;;;;;;;32.65;19.45;;;;;;;7.95;43.93;95619.16;4212780;28;20051;-72
2021/03/27 08:57:10;;;;;;;29.30;18.60;;;;;;;7.75;44.35;95618.94;4227204;28;20055;-71
2021/03/27 08:59:28;;;;;;;30.17;18.92;;;;;;;7.97;43.55;95623.28;4208480;28;20418;-73
2021/03/27 09:01:50;;;;;;;29.73;19.55;;;;;;;7.82;44.28;95619.28;4217287;28;20542;-71
2021/03/27 09:04:14;;;;;;;34.50;21.35;;;;;;;7.53;44.64;95624.16;4192598;28;20115;-72
2021/03/27 09:06:34;;;;;;;33.80;21.80;;;;;;;7.72;44.90;95624.41;4222287;28;20484;-73
2021/03/27 09:08:57;;;;;;;37.10;21.88;;;;;;;7.67;44.78;95626.50;4218690;28;20047;-72
2021/03/27 09:11:36;;;;;;;33.17;23.00;;;;;;;7.53;45.58;95621.56;4226466;28;20076;-72
2021/03/27 09:13:48;;;;;;;31.98;22.85;;;;;;;7.78;45.37;95623.06;4207656;28;20040;-72
2021/03/27 09:16:27;;;;;;;36.42;23.35;;;;;;;7.57;45.90;95622.94;4194663;28;20504;-71
2021/03/27 09:18:37;;;;;;;30.98;21.60;;;;;;;7.88;44.72;95625.81;4217555;28;20424;-72
2021/03/27 09:21:29;;;;;;;34.72;22.38;;;;;;;7.97;44.53;95625.09;4226398;28;20066;-72
2021/03/27 09:23:52;;;;;;;31.27;23.05;;;;;;;8.26;43.35;95620.19;4199301;28;20206;-70
2021/03/27 09:26:17;;;;;;;33.47;22.38;;;;;;;8.45;43.25;95611.72;4202227;28;20621;-70
2021/03/27 09:28:32;;;;;;;34.50;22.65;;;;;;;8.53;43.18;95611.94;4180058;28;20521;-72
2021/03/27 09:30:48;;;;;;;32.80;22.25;;;;;;;8.49;43.62;95618.34;4230874;28;20043;-71
2021/03/27 09:32:59;;;;;;;47.80;21.90;;;;;;;8.59;43.11;95611.44;4210989;28;20570;-70
2021/03/27 09:35:26;;;;;;;34.75;20.92;;;;;;;8.90;43.03;95608.09;4217177;28;20135;-72
2021/03/27 09:37:34;;;;;;;33.67;21.02;;;;;;;8.49;43.14;95607.91;4211445;28;20048;-71
2021/03/27 09:39:44;;;;;;;27.90;20.88;;;;;;;8.38;43.53;95613.13;4229046;28;20094;-71
2021/03/27 09:41:51;;;;;;;35.65;23.65;;;;;;;8.46;42.96;95612.56;4229879;28;20616;-73
2021/03/27 09:44:26;;;;;;;33.13;22.23;;;;;;;8.63;42.79;95611.22;4228634;28;20055;-72
2021/03/27 09:46:58;;;;;;;32.63;21.65;;;;;;;8.59;42.46;95611.44;4227116;28;20056;-72
2021/03/27 09:49:04;;;;;;;31.40;21.80;;;;;;;8.84;42.17;95606.84;4216921;28;20117;-72
2021/03/27 09:51:27;;;;;;;29.50;20.88;;;;;;;8.89;42.02;95602.06;4229334;28;20103;-72
2021/03/27 09:53:46;;;;;;;29.70;20.67;;;;;;;9.04;41.37;95599.13;4206592;28;20486;-72
2021/03/27 09:56:10;;;;;;;31.55;23.00;;;;;;;9.46;41.42;95596.47;4187444;28;20041;-71
2021/03/27 09:58:31;;;;;;;32.45;22.52;;;;;;;9.80;40.45;95602.28;4211851;28;20456;-72
2021/03/27 10:00:48;;;;;;;33.42;23.00;;;;;;;9.60;40.40;95593.53;4229729;28;20567;-74
2021/03/27 10:03:01;;;;;;;31.48;22.15;;;;;;;9.41;41.22;95597.69;4223647;28;20475;-71
2021/03/27 10:05:29;;;;;;;34.97;22.55;;;;;;;9.59;40.95;95600.56;4208467;28;20048;-72
2021/03/27 10:07:51;;;;;;;33.08;23.63;;;;;;;9.95;40.74;95590.47;4226919;28;20051;-71
2021/03/27 10:10:14;;;;;;;37.40;23.33;;;;;;;10.35;40.13;95580.97;4193749;28;20088;-73
2021/03/27 10:12:29;;;;;;;30.55;22.02;;;;;;;10.61;39.33;95582.06;4224062;28;20039;-73
2021/03/27 10:14:36;;;;;;;29.30;20.30;;;;;;;10.78;39.48;95577.13;4194505;28;20259;-74
2021/03/27 10:16:39;;;;;;;35.03;23.60;;;;;;;10.16;39.14;95566.84;4219543;28;20064;-73
2021/03/27 10:18:59;;;;;;;37.30;23.65;;;;;;;9.89;40.50;95577.91;4218907;28;20056;-71
2021/03/27 10:21:29;;;;;;;33.50;23.38;;;;;;;10.17;39.27;95565.03;4227869;28;20050;-71
2021/03/27 10:23:39;;;;;;;32.17;22.45;;;;;;;10.18;40.00;95569.31;4226370;28;20157;-71
2021/03/27 10:26:02;;;;;;;29.15;22.00;;;;;;;10.61;39.69;95566.34;4227915;28;20039;-71
2021/03/27 10:28:03;;;;;;;43.22;23.55;;;;;;;11.01;38.73;95577.63;4228306;28;20077;-73
2021/03/27 10:30:36;;;;;;;29.45;22.58;;;;;;;11.30;37.81;95569.72;4228827;28;20492;-77
2021/03/27 10:32:50;;;;;;;38.20;22.98;;;;;;;11.58;37.46;95569.78;4221870;28;20054;-86
2021/03/27 10:35:02;;;;;;;28.80;21.47;;;;;;;11.69;37.01;95567.78;4215818;28;20487;-83
2021/03/27 10:37:05;;;;;;;27.42;21.85;;;;;;;11.59;36.66;95564.38;4215972;28;20292;-84
2021/03/27 10:39:42;;;;;;;27.48;20.70;;;;;;;11.72;36.32;95568.47;4208145;28;20051;-83
2021/03/27 10:41:49;;;;;;;32.47;20.63;;;;;;;11.24;37.18;95558.00;4216152;28;20052;-85